Latest Weather Observations for Cape Grim

IDT60801

Issued at 2:21 am EST Saturday 20 July 2024 (issued every 10 minutes, with the page automatically refreshed every 10 minutes)

About weather observations | Map of weather stations | Latest weather observations for TAS | Other Formats
Station Details ID: 091331 Name: KENNAOOK/CAPE GRIM Lat: -40.68 Lon: 144.69 Height: 86.0 m
Data from the previous 72 hours. | See also: Recent months at Cape Grim
Date/Time
EST
Temp
°C
App
Temp
°C
Dew
Point
°C
Rel
Hum
%
Delta-T
°C
Wind Press
QNH
hPa
Press
MSL
hPa
Rain since
9am
mm
Dir  Spd
km/h
Gust
km/h
Spd
kts
Gust
kts
20/02:00am 9.4 4.3 9.3 99 0.1 NNE 26 32 14 17 988.7 988.8 27.0
20/01:43am 9.6 3.8 9.3 98 0.1 N 30 37 16 20 989.1 989.2 26.8
20/01:30am 9.6 3.7 9.1 97 0.2 N 30 39 16 21 989.3 989.4 26.8
20/01:26am 9.6 3.3 9.1 97 0.2 N 32 39 17 21 989.4 989.5 26.8
20/01:00am 9.5 4.0 9.2 98 0.2 N 28 41 15 22 990.0 990.1 26.6
20/12:30am 9.5 4.0 9.0 97 0.2 N 28 35 15 19 990.8 990.9 26.0
20/12:24am 9.5 3.6 8.9 96 0.3 N 30 35 16 19 991.0 991.1 26.0
20/12:00am 9.4 2.0 8.5 94 0.4 N 37 48 20 26 991.6 991.7 25.6
 
Date/Time
EST
Temp
°C
App
Temp
°C
Dew
Point
°C
Rel
Hum
%
Delta-T
°C
Wind Press
QNH
hPa
Press
MSL
hPa
Rain since
9am
mm
Dir  Spd
km/h
Gust
km/h
Spd
kts
Gust
kts
19/11:30pm 9.7 1.7 8.9 95 0.4 N 41 50 22 27 992.3 992.4 25.2
19/11:29pm 9.7 1.7 8.9 95 0.4 N 41 52 22 28 992.3 992.4 25.2
19/11:10pm 9.6 1.2 9.0 96 0.3 N 43 61 23 33 992.5 992.6 25.2
19/11:00pm 9.7 0.8 9.1 96 0.3 N 46 59 25 32 992.8 992.9 24.8
19/10:30pm 10.3 2.9 10.0 98 0.2 N 39 48 21 26 993.4 993.5 24.2
19/10:00pm 10.0 4.6 9.5 97 0.3 NNW 28 39 15 21 994.2 994.2 23.2
19/09:30pm 9.6 2.7 9.0 96 0.3 NNW 35 44 19 24 994.8 994.8 20.0
19/09:00pm 10.1 3.9 9.5 96 0.3 NNW 32 41 17 22 995.2 995.2 16.2
19/08:47pm 9.9 3.7 9.4 97 0.2 NNW 32 41 17 22 995.3 995.3 16.0
19/08:44pm 9.7 3.4 9.1 96 0.3 NNW 32 39 17 21 995.3 995.3 16.0
19/08:30pm 10.0 3.6 9.5 97 0.3 NNW 33 44 18 24 995.5 995.5 15.6
19/08:00pm 10.0 3.2 9.4 96 0.3 NNW 35 46 19 25 995.9 995.9 15.0
19/07:30pm 10.2 1.4 9.6 96 0.3 NNW 46 54 25 29 996.1 996.1 14.6
19/07:09pm 10.4 3.4 9.8 96 0.3 NW 37 50 20 27 996.6 996.6 14.0
19/07:05pm 10.3 2.5 9.7 96 0.3 NW 41 59 22 32 996.6 996.6 14.0
19/07:03pm 10.3 2.1 9.7 96 0.3 NW 43 59 23 32 996.6 996.6 14.0
19/07:01pm 10.3 2.1 9.7 96 0.3 NW 43 61 23 33 996.7 996.7 14.0
19/07:00pm 10.3 1.9 9.7 96 0.3 NW 44 61 24 33 996.7 996.7 14.0
19/06:30pm 10.1 -0.6 9.5 96 0.3 NNW 56 67 30 36 996.6 996.6 13.0
19/06:00pm 10.2 0.3 9.6 96 0.3 NNW 52 65 28 35 996.8 996.8 11.4
19/05:31pm 10.0 0.4 9.4 96 0.3 NNW 50 69 27 37 996.9 996.9 10.2
19/05:30pm 10.2 0.6 9.6 96 0.3 NNW 50 65 27 35 996.9 996.9 10.2
19/05:28pm 10.2 0.6 9.6 96 0.3 NNW 50 65 27 35 996.9 996.9 10.0
19/05:11pm 10.0 0.0 9.4 96 0.3 NNW 52 70 28 38 996.7 996.7 9.2
19/05:00pm 10.2 2.0 9.6 96 0.3 NW 43 61 23 33 997.1 997.1 8.4
19/04:35pm 10.4 3.0 9.8 96 0.3 NW 39 57 21 31 997.1 997.1 5.6
19/04:30pm 10.6 2.5 10.0 96 0.3 NW 43 57 23 31 997.0 997.0 5.2
19/04:15pm 10.8 4.2 10.0 95 0.4 NW 35 54 19 29 996.9 996.9 4.8
19/04:00pm 10.8 3.5 10.2 96 0.3 NW 39 54 21 29 997.1 997.1 4.6
19/03:34pm 10.7 2.4 10.1 96 0.3 NW 44 63 24 34 997.3 997.3 4.4
19/03:30pm 10.7 1.7 10.1 96 0.3 NW 48 63 26 34 997.3 997.3 4.4
19/03:01pm 10.8 1.7 9.9 94 0.5 NW 48 67 26 36 997.3 997.3 4.4
19/03:00pm 10.8 1.3 9.9 94 0.5 NW 50 67 27 36 997.3 997.3 4.4
19/02:58pm 10.7 1.1 9.6 93 0.6 NW 50 69 27 37 997.3 997.3 4.4
19/02:30pm 10.3 0.6 9.1 92 0.6 NNW 50 61 27 33 997.3 997.3 4.4
19/02:00pm 10.1 0.0 9.0 93 0.5 NNW 52 63 28 34 997.6 997.6 4.4
19/01:42pm 10.1 -0.3 9.3 95 0.4 NNW 54 72 29 39 997.8 997.8 4.4
19/01:30pm 9.8 -1.6 8.9 94 0.4 NNW 59 76 32 41 998.1 998.2 4.2
19/01:23pm 9.8 -1.1 8.9 94 0.4 NNW 56 76 30 41 998.2 998.3 4.2
19/01:00pm 10.1 -0.9 9.3 95 0.4 NNW 57 74 31 40 998.7 998.8 3.6
19/12:42pm 10.0 -0.8 9.1 94 0.4 NNW 56 74 30 40 999.1 999.2 3.6
19/12:30pm 10.3 -0.8 8.7 90 0.8 NNW 57 80 31 43 999.2 999.3 3.6
19/12:23pm 10.3 -0.3 8.6 89 0.8 NNW 54 80 29 43 999.4 999.5 3.6
19/12:10pm 10.3 -0.3 8.4 88 0.9 NNW 54 69 29 37 999.7 999.8 3.6
19/12:00pm 10.2 -0.4 8.3 88 0.9 NNW 54 70 29 38 999.8 999.9 3.6
19/11:33am 9.7 -1.6 8.1 90 0.8 N 57 78 31 42 1000.0 1000.1 3.6
19/11:30am 9.8 -1.4 8.4 91 0.7 N 57 74 31 40 1000.0 1000.1 3.6
19/11:22am 9.8 -1.2 8.4 91 0.7 N 56 74 30 40 1000.4 1000.5 3.6
19/11:00am 9.6 -1.4 8.4 92 0.6 N 56 70 30 38 1000.9 1001.0 3.6
19/10:42am 9.6 -0.6 8.4 92 0.6 NNW 52 65 28 35 1001.7 1001.8 3.2
19/10:30am 9.7 0.2 8.3 91 0.7 NNW 48 65 26 35 1002.0 1002.1 2.8
19/10:00am 9.8 1.3 8.4 91 0.7 NNW 43 63 23 34 1002.7 1002.8 2.0
19/09:34am 9.8 0.3 8.2 90 0.8 NNW 48 67 26 36 1002.8 1002.9 1.0
19/09:30am 10.0 0.1 8.3 89 0.8 NNW 50 67 27 36 1002.9 1003.0 0.8
19/09:00am 9.9 -0.2 7.5 85 1.2 NNW 50 65 27 35 1003.4 1003.5 0.2
19/08:30am 9.9 -0.2 7.2 83 1.3 NNW 50 65 27 35 1003.6 1003.7 0.2
19/08:09am 10.3 -0.7 7.0 80 1.6 NNW 54 72 29 39 1003.9 1004.0 0.2
19/08:00am 10.3 -0.7 7.0 80 1.6 NNW 54 69 29 37 1004.2 1004.3 0.2
19/07:48am 10.4 0.7 7.3 81 1.5 NNW 48 67 26 36 1004.3 1004.4 0.2
19/07:30am 10.2 1.8 7.3 82 1.4 NNW 41 52 22 28 1003.8 1003.9 0.2
19/07:00am 10.0 0.7 7.4 84 1.2 NNW 46 57 25 31 1004.6 1004.7 0.2
19/06:30am 10.3 0.9 7.2 81 1.5 NNW 46 59 25 32 1005.3 1005.4 0.2
19/06:00am 10.4 0.2 6.9 79 1.7 NNW 50 59 27 32 1005.8 1005.8 0.2
19/05:30am 10.4 0.2 7.1 80 1.6 NNW 50 61 27 33 1005.8 1005.8 0.2
19/05:07am 10.7 2.4 7.6 81 1.5 NW 41 59 22 32 1006.4 1006.4 0.2
19/05:00am 10.4 1.1 7.5 82 1.4 NNW 46 59 25 32 1006.4 1006.4 0.2
19/04:30am 10.2 3.8 8.5 89 0.8 NNW 32 44 17 24 1006.7 1006.7 0.2
19/04:00am 10.0 3.4 7.6 85 1.2 NNW 32 37 17 20 1007.0 1007.0 0.2
19/03:30am 10.4 4.1 7.5 82 1.4 NW 30 39 16 21 1008.0 1008.1 0.2
19/03:00am 9.8 2.9 7.2 84 1.2 NW 33 52 18 28 1008.5 1008.6 0.2
19/02:55am 10.4 3.6 7.1 80 1.6 NW 32 52 17 28 1008.5 1008.6 0.2
19/02:30am 9.6 5.0 8.0 90 0.8 NW 22 30 12 16 1008.5 1008.6 0.2
19/02:00am 9.5 5.2 7.9 90 0.8 NW 20 32 11 17 1008.6 1008.7 0.2
19/01:30am 8.5 5.4 7.4 93 0.5 NW 13 17 7 9 1008.5 1008.6 0.2
19/01:00am 8.1 4.9 7.0 93 0.5 WNW 13 17 7 9 1008.9 1009.0 0.2
19/12:30am 9.4 4.5 6.8 84 1.2 W 22 33 12 18 1009.9 1010.0 0.0
19/12:00am 9.4 3.5 5.8 78 1.7 W 26 39 14 21 1010.7 1010.8 0.0
 
Date/Time
EST
Temp
°C
App
Temp
°C
Dew
Point
°C
Rel
Hum
%
Delta-T
°C
Wind Press
QNH
hPa
Press
MSL
hPa
Rain since
9am
mm
Dir  Spd
km/h
Gust
km/h
Spd
kts
Gust
kts
18/11:30pm 9.5 3.3 4.5 71 2.2 W 26 37 14 20 1011.1 1011.2 0.0
18/11:00pm 8.8 4.0 5.5 80 1.5 WNW 20 32 11 17 1011.3 1011.4 0.0
18/10:30pm 8.4 4.2 5.7 83 1.2 W 17 24 9 13 1011.7 1011.8 0.0
18/10:00pm 7.9 2.8 6.2 89 0.8 W 22 32 12 17 1011.7 1011.8 0.0
18/09:41pm 8.4 2.4 7.0 91 0.7 W 28 48 15 26 1012.0 1012.1 0.0
18/09:30pm 8.5 4.0 6.8 89 0.8 W 20 30 11 16 1012.2 1012.3 0.0
18/09:02pm 8.6 2.4 6.2 85 1.1 W 28 46 15 25 1012.6 1012.7 0.0
18/09:00pm 9.2 3.8 6.5 83 1.3 W 24 39 13 21 1012.6 1012.7 0.0
18/08:30pm 8.6 4.6 6.7 88 0.9 WSW 17 30 9 16 1012.4 1012.5 0.0
18/08:00pm 8.4 4.2 5.9 84 1.1 WSW 17 22 9 12 1012.0 1012.1 0.0
18/07:30pm 8.6 3.8 5.4 80 1.4 SW 20 26 11 14 1012.1 1012.2 0.0
18/07:00pm 8.4 3.1 5.2 80 1.4 SW 22 32 12 17 1012.1 1012.2 0.0
18/06:30pm 8.4 1.6 5.0 79 1.5 SW 30 35 16 19 1012.2 1012.3 0.0
18/06:00pm 8.7 3.1 5.4 80 1.5 SW 24 35 13 19 1012.6 1012.7 0.0
18/05:30pm 8.6 3.2 4.6 76 1.8 WSW 22 41 12 22 1012.4 1012.5 0.0
18/05:00pm 9.1 2.1 4.1 71 2.2 SW 30 56 16 30 1012.4 1012.5 0.0
18/04:54pm 9.2 1.7 3.2 66 2.6 SW 32 56 17 30 1012.4 1012.5 0.0
18/04:30pm 9.1 2.6 2.7 64 2.7 WSW 26 44 14 24 1012.0 1012.1 0.0
18/04:21pm 9.0 2.2 3.0 66 2.6 SW 28 46 15 25 1011.9 1012.0 0.0
18/04:00pm 8.8 2.0 3.2 68 2.4 SW 28 43 15 23 1012.0 1012.1 0.0
18/03:30pm 8.9 1.4 4.7 75 1.9 SW 33 46 18 25 1012.0 1012.1 0.0
18/03:00pm 9.2 2.3 4.6 73 2.1 SW 30 44 16 24 1012.1 1012.2 0.0
18/02:30pm 8.6 0.4 4.6 76 1.8 SW 37 46 20 25 1012.8 1012.9 0.0
18/02:01pm 9.0 1.0 4.0 71 2.2 SW 35 57 19 31 1012.5 1012.6 0.0
18/02:00pm 9.2 1.2 3.8 69 2.4 SW 35 52 19 28 1012.6 1012.7 0.0
18/01:30pm 9.7 1.8 4.3 69 2.4 SW 35 48 19 26 1012.7 1012.8 0.0
18/01:00pm 9.5 2.0 4.5 71 2.2 SW 33 46 18 25 1012.8 1012.9 0.0
18/12:44pm 8.8 0.7 3.0 67 2.5 SW 35 54 19 29 1013.1 1013.2 0.0
18/12:30pm 9.4 1.5 4.2 70 2.3 SW 35 44 19 24 1013.1 1013.2 0.0
18/12:00pm 9.4 1.8 2.7 63 2.9 SW 32 41 17 22 1013.3 1013.4 0.0
18/11:30am 9.5 1.1 3.5 66 2.6 SW 37 46 20 25 1013.7 1013.8 0.0
18/11:00am 9.3 1.7 3.1 65 2.7 SW 32 43 17 23 1014.1 1014.2 0.0
18/10:30am 8.7 0.6 3.3 69 2.3 SW 35 46 19 25 1014.1 1014.2 0.0
18/10:00am 8.0 -1.1 3.8 75 1.8 SW 41 54 22 29 1014.4 1014.5 0.0
18/09:30am 8.6 0.1 3.0 68 2.4 SW 37 46 20 25 1014.6 1014.7 0.0
18/09:00am 8.6 -1.1 2.6 66 2.5 SW 43 56 23 30 1014.5 1014.6 1.0
18/08:53am 9.0 0.8 2.8 65 2.6 SW 35 54 19 29 1014.3 1014.4 1.0
18/08:30am 9.1 1.0 3.1 66 2.6 SW 35 52 19 28 1014.1 1014.2 1.0
18/08:00am 8.5 -1.3 2.1 64 2.7 SW 43 52 23 28 1014.0 1014.1 1.0
18/07:30am 8.7 0.2 3.3 69 2.3 SW 37 54 20 29 1013.9 1014.0 1.0
18/07:00am 8.8 -1.1 1.5 60 3.0 SW 43 57 23 31 1013.9 1014.0 1.0
18/06:43am 8.7 0.4 2.3 64 2.7 SW 35 56 19 30 1013.9 1014.0 1.0
18/06:30am 8.7 1.2 3.5 70 2.2 SSW 32 44 17 24 1013.8 1013.9 1.0
18/06:00am 8.5 -1.4 2.5 66 2.5 SW 44 56 24 30 1013.4 1013.5 1.0
18/05:30am 8.4 0.8 3.1 69 2.3 SW 32 48 17 26 1013.3 1013.4 1.0
18/05:26am 8.3 0.8 3.4 71 2.1 SSW 32 48 17 26 1013.3 1013.4 1.0
18/05:00am 7.3 1.5 4.6 83 1.2 S 24 32 13 17 1013.4 1013.5 1.0
18/04:51am 7.4 -0.1 4.7 83 1.2 SSW 33 52 18 28 1013.4 1013.5 1.0
18/04:30am 7.9 0.5 3.8 75 1.8 SSW 32 43 17 23 1013.5 1013.6 1.0
18/04:00am 7.9 0.6 4.7 80 1.4 S 32 43 17 23 1013.5 1013.6 1.0
18/03:44am 8.3 0.1 4.9 79 1.5 SW 37 57 20 31 1013.6 1013.7 1.0
18/03:41am 9.0 1.2 5.0 76 1.8 SW 35 57 19 31 1013.3 1013.4 1.0
18/03:30am 8.3 1.0 4.7 78 1.6 SW 32 41 17 22 1013.5 1013.6 1.0
18/03:00am 7.4 1.2 4.4 81 1.3 SSW 26 37 14 20 1013.5 1013.6 1.0
18/02:30am 7.2 2.0 3.4 77 1.6 S 20 28 11 15 1013.5 1013.6 1.0
18/02:00am 7.4 0.0 3.8 78 1.5 S 32 43 17 23 1013.6 1013.7 1.0
18/01:30am 7.3 1.3 3.2 75 1.7 S 24 35 13 19 1013.5 1013.6 1.0
18/01:00am 7.4 1.3 2.7 72 2.0 S 24 32 13 17 1013.6 1013.7 1.0
18/12:30am 7.3 1.1 2.2 70 2.1 S 24 35 13 19 1013.8 1013.9 1.0
18/12:00am 7.5 0.1 1.6 66 2.4 S 30 39 16 21 1014.1 1014.2 1.0
 
Date/Time
EST
Temp
°C
App
Temp
°C
Dew
Point
°C
Rel
Hum
%
Delta-T
°C
Wind Press
QNH
hPa
Press
MSL
hPa
Rain since
9am
mm
Dir  Spd
km/h
Gust
km/h
Spd
kts
Gust
kts
17/11:30pm 7.5 0.0 1.4 65 2.5 S 30 39 16 21 1014.2 1014.3 1.0
17/11:00pm 7.4 -0.6 1.7 67 2.3 S 33 46 18 25 1014.2 1014.3 1.0
17/10:30pm 7.1 0.2 2.8 74 1.8 S 28 41 15 22 1014.1 1014.2 1.0
17/10:00pm 7.3 0.4 2.8 73 1.9 S 28 41 15 22 1014.1 1014.2 1.0
17/09:30pm 7.6 0.3 2.7 71 2.1 S 30 43 16 23 1013.9 1014.0 1.0
17/09:00pm 7.2 0.5 3.8 79 1.5 S 28 37 15 20 1013.9 1014.0 1.0
17/08:30pm 7.4 -0.3 3.5 76 1.7 S 33 44 18 24 1013.7 1013.8 1.0
17/08:00pm 7.4 0.7 3.5 76 1.7 S 28 37 15 20 1013.4 1013.5 1.0
17/07:30pm 7.7 1.0 3.9 77 1.6 S 28 39 15 21 1013.3 1013.4 1.0
17/07:00pm 7.8 1.3 4.7 81 1.4 S 28 37 15 20 1013.0 1013.1 1.0
17/06:30pm 7.8 2.3 5.8 87 0.9 SSE 24 33 13 18 1012.6 1012.7 0.8
17/06:00pm 8.4 2.4 7.0 91 0.7 S 28 37 15 20 1012.1 1012.2 0.8
17/05:55pm 8.4 4.0 7.5 94 0.4 S 20 35 11 19 1012.1 1012.2 0.8
17/05:30pm 9.0 7.5 8.6 97 0.2 SE 6 9 3 5 1011.9 1012.0 0.6
17/05:00pm 9.1 6.7 8.5 96 0.3 NE 11 15 6 8 1011.7 1011.8 0.0
17/04:30pm 9.3 6.5 8.4 94 0.4 ENE 13 17 7 9 1011.6 1011.7 0.0
17/04:29pm 9.3 6.5 8.4 94 0.4 NE 13 17 7 9 1011.6 1011.7 0.0
17/04:00pm 10.2 7.3 8.3 88 0.9 ESE 13 19 7 10 1011.7 1011.8 0.0
17/03:30pm 10.5 4.9 7.2 80 1.6 SSW 26 37 14 20 1011.4 1011.5 0.0
17/03:00pm 10.6 5.4 7.1 79 1.7 SSW 24 35 13 19 1011.3 1011.4 0.0
17/02:30pm 10.9 5.3 7.2 78 1.8 SSW 26 35 14 19 1011.2 1011.3 0.0
17/02:00pm 11.1 5.2 7.4 78 1.8 SSW 28 37 15 20 1011.1 1011.2 0.0
17/01:30pm 10.9 6.7 7.4 79 1.7 SSW 19 26 10 14 1011.3 1011.4 0.0
17/01:00pm 11.0 5.8 7.3 78 1.8 SSW 24 30 13 16 1011.5 1011.6 0.0
17/12:30pm 11.1 6.7 7.6 79 1.7 SSW 20 30 11 16 1011.6 1011.7 0.0
17/12:00pm 10.9 5.8 7.8 81 1.5 SSW 24 33 13 18 1012.2 1012.3 0.0
17/11:30am 10.5 5.0 7.6 82 1.4 SSW 26 33 14 18 1012.4 1012.5 0.0
17/11:00am 10.1 5.3 7.5 84 1.2 SSW 22 32 12 17 1012.7 1012.8 0.0
17/10:30am 9.7 5.0 7.8 88 0.9 SSW 22 30 12 16 1012.7 1012.8 0.0
17/10:00am 9.6 6.2 7.7 88 0.9 S 15 20 8 11 1012.6 1012.7 0.0
17/09:30am 9.4 6.0 7.5 88 0.9 S 15 24 8 13 1012.4 1012.5 0.0
17/09:00am 9.4 6.0 7.8 90 0.8 S 15 22 8 12 1012.2 1012.3 0.0
17/08:30am 9.5 6.2 7.9 90 0.8 S 15 20 8 11 1011.9 1012.0 0.0
17/08:00am 9.6 6.3 7.9 89 0.8 S 15 22 8 12 1011.7 1011.8 0.0
17/07:30am 9.7 5.4 8.0 89 0.8 S 20 26 11 14 1011.4 1011.5 0.0
17/07:00am 9.6 5.3 8.0 90 0.8 S 20 32 11 17 1011.1 1011.2 0.0
17/06:30am 9.6 4.3 8.4 92 0.6 S 26 33 14 18 1011.0 1011.1 0.0
17/06:00am 9.6 4.2 8.2 91 0.7 S 26 41 14 22 1010.7 1010.8 0.0
17/05:30am 9.6 3.9 8.2 91 0.7 S 28 43 15 23 1010.6 1010.7 0.0
17/05:00am 9.6 3.2 8.4 92 0.6 S 32 43 17 23 1010.2 1010.3 0.0
17/04:30am 9.8 3.4 8.6 92 0.6 SSW 32 50 17 27 1010.2 1010.3 0.0
17/04:28am 9.8 3.4 8.6 92 0.6 SSW 32 50 17 27 1010.2 1010.3 0.0
17/04:00am 9.9 2.9 8.5 91 0.7 SSW 35 46 19 25 1010.2 1010.3 0.0
17/03:30am 10.1 3.2 8.7 91 0.7 S 35 46 19 25 1010.3 1010.4 0.0
17/03:00am 10.1 3.7 8.7 91 0.7 SSW 32 43 17 23 1010.5 1010.6 0.0
17/02:30am 10.3 4.4 8.9 91 0.7 S 30 39 16 21 1010.5 1010.6 0.0

Other formats

Comma delimited format used in spreadsheet applications
http://www.bom.gov.au/fwo/IDT60801/IDT60801.95954.axf

JavaScript Object Notation format (JSON) in row-major order
http://www.bom.gov.au/fwo/IDT60801/IDT60801.95954.json

Data quality

Most of these data are generated automatically and are frequently updated. Quality checks on data are not normally performed. It is possible for incorrect values to appear. Refer to information at About Latest Weather Observations and please check the disclaimer before using these data.